createdAt,value
2018-12-10T00:00:03.724Z,1.40
2018-12-10T00:02:32.375Z,1.30
2018-12-10T00:05:01.112Z,1.27
2018-12-10T00:07:29.700Z,1.37
2018-12-10T00:09:58.224Z,1.30
2018-12-10T00:12:26.824Z,1.20
2018-12-10T00:14:55.382Z,1.43
2018-12-10T00:17:23.925Z,1.60
2018-12-10T00:19:52.426Z,0.90
2018-12-10T00:22:20.985Z,1.43
2018-12-10T00:24:49.666Z,1.27
2018-12-10T00:27:18.248Z,1.17
2018-12-10T00:29:46.939Z,1.30
2018-12-10T00:32:15.463Z,1.33
2018-12-10T00:34:43.977Z,1.40
2018-12-10T00:37:13.312Z,1.07
2018-12-10T00:39:41.942Z,1.40
2018-12-10T00:42:10.506Z,1.20
2018-12-10T00:44:39.031Z,1.10
2018-12-10T00:47:07.672Z,1.20
2018-12-10T00:49:36.240Z,1.00
2018-12-10T00:52:04.863Z,0.87
2018-12-10T00:54:33.396Z,0.90
2018-12-10T00:57:01.935Z,1.33
2018-12-10T00:59:30.471Z,1.20
2018-12-10T01:01:59.012Z,1.20
2018-12-10T01:04:27.662Z,1.00
2018-12-10T01:06:58.841Z,0.87
2018-12-10T01:09:27.683Z,1.13
2018-12-10T01:11:56.395Z,1.00
2018-12-10T01:14:25.131Z,0.70
2018-12-10T01:16:53.737Z,1.00
2018-12-10T01:19:22.275Z,0.90
2018-12-10T01:21:50.877Z,0.80
2018-12-10T01:24:19.460Z,0.80
2018-12-10T01:26:48.040Z,1.10
2018-12-10T01:29:16.563Z,0.97
2018-12-10T01:31:45.176Z,0.70
2018-12-10T01:34:13.743Z,0.80
2018-12-10T01:36:42.315Z,0.93
2018-12-10T01:39:10.876Z,0.93
2018-12-10T01:41:39.404Z,0.80
2018-12-10T01:44:07.943Z,0.90
2018-12-10T01:46:36.476Z,0.83
2018-12-10T01:49:04.964Z,1.00
2018-12-10T01:51:33.560Z,0.90
2018-12-10T01:54:02.165Z,0.60
2018-12-10T01:56:30.714Z,0.80
2018-12-10T01:58:59.312Z,0.90
2018-12-10T02:01:27.871Z,1.07
2018-12-10T02:03:56.463Z,0.80
2018-12-10T02:06:25.052Z,0.90
2018-12-10T02:08:53.616Z,0.87
2018-12-10T02:11:22.235Z,0.80
2018-12-10T02:13:50.756Z,0.67
2018-12-10T02:16:19.360Z,0.70
2018-12-10T02:18:47.898Z,0.50
2018-12-10T02:21:16.567Z,0.77
2018-12-10T02:23:45.155Z,0.70
2018-12-10T02:26:13.707Z,0.70
2018-12-10T02:28:47.455Z,0.80
2018-12-10T02:31:16.054Z,0.70
2018-12-10T02:33:44.581Z,0.63
2018-12-10T02:36:13.169Z,0.97
2018-12-10T02:38:41.737Z,0.90
2018-12-10T02:41:10.416Z,1.17
2018-12-10T02:43:38.991Z,0.70
2018-12-10T02:46:07.630Z,0.83
2018-12-10T02:48:36.188Z,0.50
2018-12-10T02:51:04.998Z,0.60
2018-12-10T02:53:33.547Z,0.60
2018-12-10T02:56:02.146Z,0.57
2018-12-10T02:58:30.715Z,0.67
2018-12-10T03:00:59.305Z,0.50
2018-12-10T03:03:27.829Z,0.60
2018-12-10T03:05:56.389Z,0.63
2018-12-10T03:08:25.703Z,0.50
2018-12-10T03:10:54.235Z,0.60
2018-12-10T03:13:22.871Z,0.60
2018-12-10T03:15:51.487Z,0.50
2018-12-10T03:18:20.027Z,0.50
2018-12-10T03:20:48.571Z,0.50
2018-12-10T03:23:17.130Z,0.50
2018-12-10T03:25:45.703Z,0.50
2018-12-10T03:28:14.248Z,0.50
2018-12-10T03:30:42.828Z,0.50
2018-12-10T03:33:11.481Z,0.40
2018-12-10T03:35:40.052Z,0.50
2018-12-10T03:38:08.627Z,0.50
2018-12-10T03:40:37.162Z,0.47
2018-12-10T03:43:05.666Z,0.40
2018-12-10T03:45:34.284Z,0.40
2018-12-10T03:48:02.892Z,0.50
2018-12-10T03:50:31.451Z,0.40
2018-12-10T03:53:00.050Z,0.47
2018-12-10T03:55:28.637Z,0.40
2018-12-10T03:57:57.223Z,0.40
2018-12-10T04:00:25.741Z,0.50
2018-12-10T04:02:54.315Z,0.40
2018-12-10T04:05:22.977Z,0.40
2018-12-10T04:07:52.269Z,0.53
2018-12-10T04:10:20.839Z,0.50
2018-12-10T04:12:49.379Z,0.30
2018-12-10T04:15:17.908Z,0.30
2018-12-10T04:17:46.452Z,0.50
2018-12-10T04:20:15.075Z,0.50
2018-12-10T04:22:43.775Z,0.30
2018-12-10T04:25:12.281Z,0.33
2018-12-10T04:27:40.800Z,0.77
2018-12-10T04:30:09.387Z,0.33
2018-12-10T04:32:37.908Z,0.50
2018-12-10T04:35:06.580Z,0.40
2018-12-10T04:37:35.135Z,0.30
2018-12-10T04:40:03.985Z,0.40
2018-12-10T04:42:32.577Z,0.30
2018-12-10T04:45:01.097Z,0.37
2018-12-10T04:47:29.655Z,0.37
2018-12-10T04:49:58.250Z,0.40
2018-12-10T04:52:26.782Z,0.63
2018-12-10T04:54:55.332Z,0.47
2018-12-10T04:57:23.916Z,0.30
2018-12-10T04:59:52.827Z,0.40
2018-12-10T05:02:21.950Z,0.40
2018-12-10T05:04:50.499Z,0.40
2018-12-10T05:07:19.045Z,0.37
2018-12-10T05:09:47.823Z,0.30
2018-12-10T05:12:16.385Z,0.40
2018-12-10T05:14:44.937Z,0.33
2018-12-10T05:17:13.485Z,0.40
2018-12-10T05:19:42.036Z,0.30
2018-12-10T05:22:10.631Z,0.23
2018-12-10T05:24:39.203Z,0.30
2018-12-10T05:27:07.730Z,0.40
2018-12-10T05:29:36.303Z,0.30
2018-12-10T05:32:05.028Z,0.40
2018-12-10T05:34:33.552Z,0.40
2018-12-10T05:37:02.111Z,0.30
2018-12-10T05:39:30.640Z,0.47
2018-12-10T05:41:59.170Z,0.30
2018-12-10T05:44:27.750Z,0.50
2018-12-10T05:46:56.543Z,0.63
2018-12-10T05:49:25.141Z,1.03
2018-12-10T05:51:53.702Z,0.57
2018-12-10T05:54:22.360Z,0.50
2018-12-10T05:56:50.941Z,0.50
2018-12-10T05:59:19.639Z,0.90
2018-12-10T06:01:48.211Z,0.53
2018-12-10T06:04:17.055Z,0.60
2018-12-10T06:06:45.618Z,0.50
2018-12-10T06:09:14.232Z,0.77
2018-12-10T06:11:42.762Z,0.70
2018-12-10T06:14:11.284Z,0.33
2018-12-10T06:16:39.866Z,0.60
2018-12-10T06:19:08.413Z,0.40
2018-12-10T06:21:36.915Z,0.40
2018-12-10T06:24:05.475Z,0.50
2018-12-10T06:26:34.131Z,0.50
2018-12-10T06:29:02.699Z,0.43
2018-12-10T06:31:31.533Z,0.40
2018-12-10T06:34:00.075Z,0.50
2018-12-10T06:36:28.655Z,0.50
2018-12-10T06:38:57.387Z,0.30
2018-12-10T06:41:25.934Z,0.33
2018-12-10T06:43:56.431Z,0.30
2018-12-10T06:46:24.943Z,0.40
2018-12-10T06:48:53.825Z,0.50
2018-12-10T06:51:22.385Z,0.40
2018-12-10T06:53:50.941Z,0.50
2018-12-10T06:56:19.471Z,0.50
2018-12-10T06:58:48.014Z,0.40
2018-12-10T07:01:16.617Z,0.40
2018-12-10T07:03:49.355Z,0.40
2018-12-10T07:06:17.956Z,0.40
2018-12-10T07:08:46.484Z,0.70
2018-12-10T07:11:15.048Z,0.60
2018-12-10T07:13:44.024Z,0.53
2018-12-10T07:16:12.621Z,0.70
2018-12-10T07:18:41.412Z,0.50
2018-12-10T07:21:09.945Z,0.50
2018-12-10T07:23:38.479Z,0.50
2018-12-10T07:26:07.110Z,0.53
2018-12-10T07:28:35.684Z,0.50
2018-12-10T07:31:04.350Z,0.50
2018-12-10T07:33:32.952Z,0.70
2018-12-10T07:36:01.499Z,0.33
2018-12-10T07:38:30.102Z,0.40
2018-12-10T07:40:58.616Z,0.50
2018-12-10T07:43:27.162Z,0.30
2018-12-10T07:45:56.295Z,0.73
2018-12-10T07:48:24.849Z,0.30
2018-12-10T07:50:53.516Z,0.33
2018-12-10T07:53:22.099Z,0.50
2018-12-10T07:55:51.005Z,0.47
2018-12-10T07:58:19.812Z,0.40
2018-12-10T08:00:48.387Z,0.43
2018-12-10T08:03:16.955Z,0.60
2018-12-10T08:05:45.507Z,0.43
2018-12-10T08:08:14.102Z,0.47
2018-12-10T08:10:42.617Z,0.70
2018-12-10T08:13:11.144Z,0.60
2018-12-10T08:15:39.724Z,0.47
2018-12-10T08:18:08.523Z,0.80
2018-12-10T08:20:37.076Z,0.80
2018-12-10T08:23:05.651Z,0.70
2018-12-10T08:25:34.202Z,0.73
2018-12-10T08:28:02.799Z,0.87
2018-12-10T08:30:31.385Z,0.60
2018-12-10T08:32:59.975Z,0.60
2018-12-10T08:35:28.646Z,0.80
2018-12-10T08:37:57.224Z,0.50
2018-12-10T08:40:25.852Z,0.50
2018-12-10T08:42:54.564Z,0.70
2018-12-10T08:45:23.168Z,0.60
2018-12-10T08:47:51.728Z,0.63
2018-12-10T08:50:20.452Z,1.00
2018-12-10T08:52:49.023Z,0.77
2018-12-10T08:55:17.583Z,0.50
2018-12-10T08:57:46.128Z,0.60
2018-12-10T09:00:14.682Z,0.80
2018-12-10T09:02:43.232Z,0.70
2018-12-10T09:05:11.779Z,0.40
2018-12-10T09:07:40.342Z,0.60
2018-12-10T09:10:09.015Z,0.70
2018-12-10T09:12:37.679Z,0.40
2018-12-10T09:21:51.284Z,0.70
2018-12-10T09:24:19.855Z,0.50
2018-12-10T09:26:48.539Z,0.40
2018-12-10T09:29:17.158Z,0.50
2018-12-10T09:31:45.683Z,0.40
2018-12-10T09:34:14.227Z,0.50
2018-12-10T09:36:42.806Z,0.50
2018-12-10T09:39:11.371Z,0.50
2018-12-10T09:41:39.959Z,0.77
2018-12-10T09:44:08.541Z,0.60
2018-12-10T09:46:37.086Z,0.50
2018-12-10T09:49:05.664Z,0.80
2018-12-10T09:54:00.845Z,0.57
2018-12-10T09:56:29.495Z,0.93
2018-12-10T09:58:58.167Z,0.50
2018-12-10T10:01:26.892Z,0.50
2018-12-10T10:03:55.463Z,0.50
2018-12-10T10:06:24.051Z,0.50
2018-12-10T10:08:52.584Z,0.30
2018-12-10T10:11:21.210Z,0.50
2018-12-10T10:13:49.835Z,0.50
2018-12-10T10:16:18.375Z,0.67
2018-12-10T10:18:47.194Z,0.60
2018-12-10T10:21:15.845Z,0.97
2018-12-10T10:23:44.402Z,1.00
2018-12-10T10:26:12.927Z,0.80
2018-12-10T10:28:41.537Z,0.73
2018-12-10T10:31:10.136Z,0.93
2018-12-10T10:33:38.755Z,0.90
2018-12-10T10:36:07.307Z,0.77
2018-12-10T10:38:35.812Z,0.77
2018-12-10T10:41:04.357Z,0.70
2018-12-10T10:43:32.899Z,0.90
2018-12-10T10:46:01.465Z,1.00
2018-12-10T10:48:29.995Z,0.80
2018-12-10T10:50:58.733Z,1.00
2018-12-10T10:53:27.313Z,0.70
2018-12-10T10:55:55.827Z,0.50
2018-12-10T10:58:24.416Z,0.70
2018-12-10T11:00:58.323Z,0.70
2018-12-10T11:03:37.251Z,0.77
2018-12-10T11:06:06.528Z,0.80
2018-12-10T11:08:35.081Z,0.50
2018-12-10T11:11:03.621Z,0.60
2018-12-10T11:13:32.213Z,0.60
2018-12-10T11:16:00.792Z,0.53
2018-12-10T11:18:29.405Z,0.83
2018-12-10T11:20:58.023Z,0.90
2018-12-10T11:23:26.559Z,0.87
2018-12-10T11:25:55.139Z,0.90
2018-12-10T11:28:23.687Z,1.17
2018-12-10T11:30:52.236Z,1.17
2018-12-10T11:33:20.807Z,0.70
2018-12-10T11:35:49.343Z,0.90
2018-12-10T11:38:17.884Z,0.70
2018-12-10T11:43:26.401Z,0.83
2018-12-10T11:45:54.915Z,0.70
2018-12-10T11:48:23.490Z,0.60
2018-12-10T11:50:53.299Z,0.83
2018-12-10T11:53:21.847Z,0.50
2018-12-10T11:55:50.375Z,0.87
2018-12-10T11:58:19.015Z,0.80
2018-12-10T12:00:47.563Z,0.80
2018-12-10T12:03:16.102Z,0.67
2018-12-10T12:05:44.687Z,0.50
2018-12-10T12:08:13.265Z,0.60
2018-12-10T12:10:41.808Z,0.97
2018-12-10T12:13:10.366Z,0.80
2018-12-10T12:15:39.000Z,1.00
2018-12-10T12:18:07.601Z,0.70
2018-12-10T12:20:36.175Z,0.60
2018-12-10T12:23:04.747Z,0.77
2018-12-10T12:25:33.307Z,1.20
2018-12-10T12:28:01.871Z,4.83
2018-12-10T12:30:30.443Z,7.20
2018-12-10T12:32:59.303Z,9.67
2018-12-10T12:35:27.924Z,16.40
2018-12-10T12:37:56.548Z,15.53
2018-12-10T12:40:25.155Z,19.07
2018-12-10T12:42:53.827Z,22.10
2018-12-10T12:45:22.520Z,22.57
2018-12-10T12:47:51.100Z,23.03
2018-12-10T12:50:19.679Z,23.80
2018-12-10T12:52:48.221Z,25.17
2018-12-10T12:55:16.772Z,22.20
2018-12-10T12:57:45.387Z,21.77
2018-12-10T13:00:14.163Z,22.23
2018-12-10T13:02:42.756Z,22.77
2018-12-10T13:05:11.370Z,21.20
2018-12-10T13:07:40.010Z,20.57
2018-12-10T13:10:10.160Z,18.57
2018-12-10T13:12:38.697Z,18.93
2018-12-10T13:15:08.412Z,17.67
2018-12-10T13:17:36.996Z,17.67
2018-12-10T13:20:06.617Z,18.03
2018-12-10T13:22:35.213Z,17.00
2018-12-10T13:25:03.911Z,15.67
2018-12-10T13:27:32.517Z,15.40
2018-12-10T13:30:01.043Z,14.83
2018-12-10T13:32:29.625Z,14.50
2018-12-10T13:34:58.143Z,14.90
2018-12-10T13:37:26.775Z,13.53
2018-12-10T13:39:55.330Z,12.63
2018-12-10T13:42:23.871Z,12.00
2018-12-10T13:44:52.476Z,12.80
2018-12-10T13:47:21.064Z,11.43
2018-12-10T13:49:49.646Z,10.83
2018-12-10T13:52:18.227Z,10.73
2018-12-10T13:54:46.903Z,11.20
2018-12-10T13:57:15.571Z,10.50
2018-12-10T13:59:44.124Z,10.00
2018-12-10T14:02:12.799Z,9.67
2018-12-10T14:04:59.040Z,9.47
2018-12-10T14:07:27.722Z,9.53
2018-12-10T14:09:56.359Z,8.77
2018-12-10T14:12:24.930Z,8.90
2018-12-10T14:14:53.483Z,7.60
2018-12-10T14:17:22.335Z,8.50
2018-12-10T14:19:50.967Z,8.03
2018-12-10T14:22:19.527Z,8.13
2018-12-10T14:24:48.139Z,7.40
2018-12-10T14:27:16.693Z,8.17
2018-12-10T14:29:45.384Z,6.97
2018-12-10T14:32:14.685Z,7.00
2018-12-10T14:34:43.261Z,6.93
2018-12-10T14:37:11.870Z,6.67
2018-12-10T14:39:40.428Z,6.70
2018-12-10T14:42:21.143Z,5.90
2018-12-10T14:44:49.763Z,5.60
2018-12-10T14:47:18.472Z,5.90
2018-12-10T14:49:47.075Z,5.43
2018-12-10T14:52:15.677Z,5.60
2018-12-10T14:54:44.216Z,6.23
2018-12-10T14:57:12.826Z,5.73
2018-12-10T14:59:42.340Z,5.33
2018-12-10T15:02:10.915Z,4.83
2018-12-10T15:04:39.482Z,4.57
2018-12-10T15:07:08.074Z,4.77
2018-12-10T15:09:36.678Z,4.50
2018-12-10T15:12:05.303Z,4.77
2018-12-10T15:14:33.939Z,4.87
2018-12-10T15:17:02.594Z,4.40
2018-12-10T15:19:31.196Z,4.60
2018-12-10T15:21:59.901Z,4.00
2018-12-10T15:24:28.560Z,4.43
2018-12-10T15:26:57.185Z,4.50
2018-12-10T15:29:25.750Z,4.30
2018-12-10T15:31:54.334Z,4.63
2018-12-10T15:34:22.979Z,3.97
2018-12-10T15:36:51.531Z,4.23
2018-12-10T15:39:20.167Z,4.43
2018-12-10T15:41:49.437Z,4.07
2018-12-10T15:44:18.123Z,3.70
2018-12-10T15:46:46.683Z,3.40
2018-12-10T15:49:15.234Z,3.50
2018-12-10T15:51:43.901Z,3.53
2018-12-10T15:54:12.500Z,3.37
2018-12-10T15:56:42.294Z,3.50
2018-12-10T15:59:10.937Z,3.13
2018-12-10T16:01:39.845Z,3.07
2018-12-10T16:04:08.417Z,3.17
2018-12-10T16:06:37.008Z,2.80
2018-12-10T16:09:07.243Z,2.63
2018-12-10T16:11:35.896Z,2.70
2018-12-10T16:14:04.591Z,3.27
2018-12-10T16:16:33.132Z,3.13
2018-12-10T16:19:01.803Z,2.90
2018-12-10T16:21:30.444Z,3.00
2018-12-10T16:23:59.020Z,3.23
2018-12-10T16:26:27.594Z,2.80
2018-12-10T16:28:56.254Z,2.40
2018-12-10T16:31:24.949Z,2.63
2018-12-10T16:33:53.511Z,2.20
2018-12-10T16:36:22.103Z,2.33
2018-12-10T16:38:50.782Z,74.73
2018-12-10T16:41:19.459Z,100.63
2018-12-10T16:43:48.151Z,110.07
2018-12-10T16:46:16.763Z,149.33
2018-12-10T16:48:45.383Z,178.07
2018-12-10T16:51:13.993Z,165.23
2018-12-10T16:53:42.667Z,158.67
2018-12-10T16:56:11.263Z,152.97
2018-12-10T16:58:39.909Z,144.90
2018-12-10T17:01:08.826Z,137.17
2018-12-10T17:03:37.427Z,129.40
2018-12-10T17:06:06.053Z,127.63
2018-12-10T17:08:34.640Z,119.03
2018-12-10T17:11:03.240Z,109.53
2018-12-10T17:13:31.887Z,108.87
2018-12-10T17:16:01.434Z,104.10
2018-12-10T17:18:30.279Z,96.90
2018-12-10T17:20:59.515Z,92.20
2018-12-10T17:23:28.267Z,87.10
2018-12-10T17:25:56.832Z,84.17
2018-12-10T17:28:25.437Z,80.37
2018-12-10T17:30:53.987Z,75.47
2018-12-10T17:33:22.555Z,75.47
2018-12-10T17:35:51.683Z,70.77
2018-12-10T17:38:20.472Z,68.00
2018-12-10T17:40:49.056Z,66.60
2018-12-10T17:43:18.056Z,66.37
2018-12-10T17:45:46.669Z,63.83
2018-12-10T17:48:15.336Z,59.63
2018-12-10T17:50:43.944Z,57.03
2018-12-10T17:53:12.516Z,55.43
2018-12-10T17:55:41.159Z,55.27
2018-12-10T17:58:09.802Z,54.20
2018-12-10T18:00:38.395Z,51.23
2018-12-10T18:03:06.958Z,49.67
2018-12-10T18:05:35.531Z,49.10
2018-12-10T18:08:04.403Z,46.40
2018-12-10T18:10:33.020Z,46.30
2018-12-10T18:13:01.642Z,43.37
2018-12-10T18:15:30.874Z,42.23
2018-12-10T18:17:59.490Z,41.23
2018-12-10T18:20:28.180Z,38.77
2018-12-10T18:22:56.752Z,38.13
2018-12-10T18:25:25.300Z,37.27
2018-12-10T18:27:54.395Z,35.53
2018-12-10T18:30:23.091Z,33.73
2018-12-10T18:32:51.665Z,33.77
2018-12-10T18:35:20.295Z,32.27
2018-12-10T18:37:48.963Z,32.93
2018-12-10T18:40:18.119Z,33.30
2018-12-10T18:42:46.864Z,30.53
2018-12-10T18:45:17.329Z,29.83
2018-12-10T18:47:45.974Z,30.10
2018-12-10T18:50:14.611Z,30.20
2018-12-10T18:52:43.323Z,28.43
2018-12-10T18:55:12.006Z,27.40
2018-12-10T18:57:40.599Z,26.27
2018-12-10T19:00:13.127Z,26.80
2018-12-10T19:02:42.046Z,25.67
2018-12-10T19:05:10.667Z,23.83
2018-12-10T19:07:39.286Z,23.80
2018-12-10T19:10:09.264Z,23.47
2018-12-10T19:12:38.199Z,22.30
2018-12-10T19:15:09.259Z,21.83
2018-12-10T19:17:37.854Z,21.03
2018-12-10T19:20:07.323Z,20.50
2018-12-10T19:22:35.934Z,20.77
2018-12-10T19:25:04.795Z,19.87
2018-12-10T19:27:33.458Z,18.70
2018-12-10T19:30:01.987Z,19.10
2018-12-10T19:32:30.568Z,19.00
2018-12-10T19:34:59.251Z,18.43
2018-12-10T19:37:27.963Z,17.90
2018-12-10T19:39:56.562Z,17.53
2018-12-10T19:42:25.684Z,16.03
2018-12-10T19:44:54.279Z,16.27
2018-12-10T19:47:22.919Z,16.40
2018-12-10T19:49:51.873Z,15.57
2018-12-10T19:52:20.534Z,15.10
2018-12-10T19:54:49.192Z,14.17
2018-12-10T19:57:17.793Z,14.97
2018-12-10T19:59:46.386Z,14.13
2018-12-10T20:02:14.983Z,14.87
2018-12-10T20:04:43.635Z,13.60
2018-12-10T20:07:12.361Z,13.43
2018-12-10T20:09:40.919Z,12.90
2018-12-10T20:12:09.537Z,12.60
2018-12-10T20:14:38.192Z,12.27
2018-12-10T20:17:06.840Z,12.20
2018-12-10T20:19:38.749Z,12.20
2018-12-10T20:22:07.517Z,12.10
2018-12-10T20:24:36.221Z,11.00
2018-12-10T20:27:04.949Z,11.00
2018-12-10T20:29:33.581Z,10.40
2018-12-10T20:32:02.274Z,10.57
2018-12-10T20:34:30.948Z,10.03
2018-12-10T20:36:59.740Z,9.30
2018-12-10T20:39:28.450Z,9.47
2018-12-10T20:41:57.324Z,9.23
2018-12-10T20:44:26.004Z,9.60
2018-12-10T20:46:54.823Z,8.67
2018-12-10T20:49:23.469Z,8.33
2018-12-10T20:51:52.199Z,8.03
2018-12-10T20:54:20.817Z,8.07
2018-12-10T20:56:49.415Z,8.73
2018-12-10T20:59:18.081Z,7.77
2018-12-10T21:01:46.911Z,7.60
2018-12-10T21:04:15.575Z,7.37
2018-12-10T21:06:44.378Z,6.83
2018-12-10T21:09:12.999Z,6.87
2018-12-10T21:11:41.623Z,7.07
2018-12-10T21:14:10.454Z,6.90
2018-12-10T21:16:39.210Z,6.53
2018-12-10T21:19:08.011Z,6.90
2018-12-10T21:21:36.819Z,5.70
2018-12-10T21:24:05.729Z,6.20
2018-12-10T21:26:34.408Z,6.50
2018-12-10T21:29:03.163Z,5.43
2018-12-10T21:31:32.023Z,5.50
2018-12-10T21:34:00.767Z,5.87
2018-12-10T21:36:29.470Z,5.87
2018-12-10T21:38:58.211Z,5.60
2018-12-10T21:41:26.903Z,5.40
2018-12-10T21:43:55.547Z,6.00
2018-12-10T21:46:24.200Z,5.10
2018-12-10T21:48:52.930Z,5.10
2018-12-10T21:51:21.796Z,4.97
2018-12-10T21:53:51.926Z,4.77
2018-12-10T21:56:21.060Z,4.80
2018-12-10T21:58:49.826Z,4.63
2018-12-10T22:01:18.408Z,4.47
2018-12-10T22:03:47.181Z,4.43
2018-12-10T22:06:15.778Z,4.67
2018-12-10T22:08:44.368Z,4.23
2018-12-10T22:11:12.921Z,4.43
2018-12-10T22:13:41.529Z,4.50
2018-12-10T22:16:10.178Z,4.20
2018-12-10T22:18:38.777Z,4.10
2018-12-10T22:21:07.486Z,4.30
2018-12-10T22:23:36.044Z,4.00
2018-12-10T22:26:04.620Z,3.47
2018-12-10T22:28:33.252Z,3.67
2018-12-10T22:31:01.833Z,3.83
2018-12-10T22:33:30.506Z,3.30
2018-12-10T22:35:59.149Z,3.77
2018-12-10T22:38:27.808Z,3.60
2018-12-10T22:40:56.412Z,3.23
2018-12-10T22:43:25.050Z,3.73
2018-12-10T22:45:53.707Z,3.20
2018-12-10T22:48:22.274Z,3.73
2018-12-10T22:50:50.854Z,3.27
2018-12-10T22:53:19.441Z,3.20
2018-12-10T22:55:48.035Z,3.17
2018-12-10T22:58:16.667Z,3.33
2018-12-10T23:00:50.823Z,3.33
2018-12-10T23:03:19.540Z,3.10
2018-12-10T23:05:48.103Z,3.00
2018-12-10T23:08:16.752Z,3.10
2018-12-10T23:10:45.362Z,3.27
2018-12-10T23:13:13.906Z,2.80
2018-12-10T23:15:42.495Z,2.83
2018-12-10T23:18:11.064Z,2.80
2018-12-10T23:20:39.606Z,2.70
2018-12-10T23:23:08.208Z,3.00
2018-12-10T23:25:36.991Z,2.53
2018-12-10T23:28:05.707Z,2.50
2018-12-10T23:30:34.471Z,2.70
2018-12-10T23:33:03.035Z,2.37
2018-12-10T23:35:31.598Z,2.50
2018-12-10T23:38:00.182Z,2.67
2018-12-10T23:40:28.807Z,2.57
2018-12-10T23:43:02.677Z,2.53
2018-12-10T23:45:31.211Z,2.60
2018-12-10T23:47:59.888Z,2.27
2018-12-10T23:50:28.553Z,2.43
2018-12-10T23:52:57.252Z,2.30
2018-12-10T23:55:25.811Z,2.13
2018-12-10T23:57:54.396Z,2.33
